Latest Coastal Weather Observations for Kowanyama

IDQ60701

Issued at 5:01 pm EST Saturday 28 February 2015 (issued every 10 minutes, with the page automatically refreshed every 10 minutes)

About coastal observations | Map of coastal stations | Coastal observations for QLD | Marine services | Other Formats
Station Details ID: 029038 Name: KOWANYAMA AIRPORT Lat: -15.48 Lon: 141.75 Height: 9.6 m
Data from the previous 72 hours. | See also: Recent months at Kowanyama
Date/Time
EST
Temp

°C
Wind Pressure Rain
since 9am
mm
Weather Cloud Vis
km
Sea
Height
m
Swell
Dir
 
Speed
knots
Gust
knots
hPa Trend Height
m
Period
s
Dir
28/05:00pm 33.2 NW 7 10 1003.5 - 0.0 - Partly cloudy - - - - -
28/04:30pm 33.4 NW 6 9 1003.6 - 0.0 - Partly cloudy - - - - -
28/04:00pm 35.4 NNW 3 7 1003.7 - 0.0 - Partly cloudy - - - - -
28/03:30pm 34.3 ENE 4 7 1004.0 - 0.0 - Partly cloudy - - - - -
28/03:00pm 34.1 ESE 3 6 1004.5 - 0.0 - Partly cloudy - - - - -
28/02:30pm 34.1 NE 4 7 1004.8 - 0.0 - Partly cloudy - - - - -
28/02:00pm 33.7 ENE 4 8 1005.4 - 0.0 - Partly cloudy - - - - -
28/01:30pm 33.8 ESE 4 8 1005.7 - 0.0 - Partly cloudy - - - - -
28/01:00pm 33.3 ENE 3 7 1006.1 - 0.0 - Partly cloudy - - - - -
28/12:30pm 33.2 ESE 3 4 1006.6 - 0.0 - Partly cloudy - - - - -
28/12:00pm 32.4 N 2 4 1007.1 - 0.0 - Cloudy - - - - -
28/11:30am 32.5 NNE 4 8 1007.4 - 0.0 - Partly cloudy - - - - -
28/11:00am 31.7 NNE 5 7 1007.6 - 0.0 - Partly cloudy - - - - -
28/10:30am 31.3 N 5 7 1007.7 - 0.0 - - - - - - -
28/10:00am 30.4 N 5 9 1007.9 - 0.0 - - - - - - -
28/09:30am 30.3 NNE 4 7 1007.9 - 0.0 - - - - - - -
28/09:00am 29.0 NNE 5 6 1007.8 - 0.2 - - - - - - -
28/08:00am 27.4 NE 5 7 1007.2 - 0.2 - - - - - - -
28/07:30am 26.3 NE 5 6 1006.6 - 0.2 - - - - - - -
28/07:00am 25.4 NE 1 4 1006.4 - 0.2 - - - - - - -
28/06:30am 25.3 CALM 0 2 1006.1 - 0.2 - Partly cloudy - - - - -
28/06:00am 25.3 SE 1 3 1005.9 - 0.2 - - - - - - -
28/05:30am 25.2 NNE 4 7 1005.3 - 0.2 - - - - - - -
28/05:00am 25.3 NNE 4 5 1005.3 - 0.2 - Partly cloudy - - - - -
28/04:30am 25.4 NNE 5 6 1005.5 - 0.2 - Partly cloudy - - - - -
28/04:00am 25.4 E 2 4 1005.9 - 0.2 - Partly cloudy - - - - -
28/03:30am 25.4 E 2 3 1005.7 - 0.2 - - - - - - -
28/03:00am 25.8 E 2 4 1006.1 - 0.2 - Mostly clear - - - - -
28/02:30am 25.7 N 3 4 1006.1 - 0.2 - - - - - - -
28/02:00am 25.9 NNE 3 5 1006.5 - 0.2 - - - - - - -
28/01:30am 26.2 N 4 6 1006.9 - 0.2 - - - - - - -
28/01:00am 26.3 N 5 6 1007.3 - 0.2 - - - - - - -
28/12:30am 26.3 NNE 3 5 1007.6 - 0.2 - - - - - - -
28/12:00am 26.6 N 3 5 1007.7 - 0.2 - - - - - - -
 
Date/Time
EST
Temp

°C
Wind Pressure Rain
since 9am
mm
Weather Cloud Vis
km
Sea
Height
m
Swell
Dir
 
Speed
knots
Gust
knots
hPa Trend Height
m
Period
s
Dir
27/11:30pm 26.6 N 3 4 1007.7 - 0.2 - - - - - - -
27/11:00pm 26.6 CALM 0 2 1007.7 - 0.0 - - - - - - -
27/10:30pm 26.7 CALM 0 3 1007.5 - 0.0 - - - - - - -
27/10:00pm 26.9 CALM 0 0 1007.1 - 0.0 - - - - - - -
27/09:30pm 27.1 NNW 1 3 1006.8 - 0.0 - - - - - - -
27/09:00pm 27.3 NNW 5 8 1006.6 - 0.0 - Cloudy - - - - -
27/08:30pm 27.8 SE 5 11 1006.4 - 0.0 - Partly cloudy - - - - -
27/08:00pm 28.6 CALM 0 0 1006.7 - 0.0 - Partly cloudy - - - - -
27/07:30pm 28.8 WNW 4 5 1006.1 - 0.0 - Partly cloudy - - - - -
27/07:00pm 29.1 W 6 8 1005.4 - 0.0 - - - - - - -
27/06:30pm 29.9 WNW 8 11 1004.9 - 0.0 - Partly cloudy - - - - -
27/06:00pm 31.0 WNW 10 13 1004.6 - 0.0 - Cloudy - - - - -
27/05:30pm 32.1 WNW 9 11 1004.3 - 0.0 - Partly cloudy - - - - -
27/05:00pm 32.5 WNW 8 11 1004.0 - 0.0 - - - - - - -
27/04:30pm 31.8 WNW 9 11 1004.0 - 0.0 - Partly cloudy - - - - -
27/04:00pm 31.7 WNW 10 15 1003.9 - 0.0 - Partly cloudy - - - - -
27/03:30pm 32.3 NW 9 12 1004.1 - 0.0 - Partly cloudy - - - - -
27/03:00pm 32.9 W 4 7 1004.3 - 0.0 - Mostly cloudy - - - - -
27/02:30pm 32.6 NE 5 9 1004.7 - 0.0 - Partly cloudy - - - - -
27/02:00pm 33.6 NNW 6 9 1005.0 - 0.0 - Partly cloudy - - - - -
27/01:30pm 32.7 ENE 4 6 1005.4 - 0.0 - Partly cloudy - - - - -
27/01:00pm 33.5 N 5 8 1005.8 - 0.0 - Partly cloudy - - - - -
27/12:30pm 33.3 NNE 7 10 1006.4 - 0.0 - Partly cloudy - - - - -
27/12:00pm 32.6 NNE 7 12 1007.0 - 0.0 - Mostly clear - - - - -
27/11:30am 32.4 N 6 10 1007.4 - 0.0 - Partly cloudy - - - - -
27/11:00am 32.0 NNE 5 7 1007.8 - 0.0 - - - - - - -
27/10:30am 31.3 NNE 5 9 1008.1 - 0.0 - - - - - - -
27/10:00am 30.4 NNE 6 9 1008.0 - 0.0 - - - - - - -
27/09:30am 29.5 N 5 7 1008.1 - 0.0 - - - - - - -
27/09:00am 28.3 N 5 8 1008.1 - 0.0 - - - - - - -
27/08:30am 27.1 N 4 6 1007.9 - 0.0 - - - - - - -
27/08:00am 26.1 N 4 6 1007.6 - 0.0 - - - - - - -
27/07:30am 25.0 NNE 3 5 1007.2 - 0.0 - - - - - - -
27/07:00am 24.3 NE 2 4 1006.9 - 0.0 - - - - - - -
27/06:30am 24.0 NNE 3 5 1006.5 - 0.0 - - - - - - -
27/06:00am 24.1 NNE 3 5 1006.1 - 0.0 - - - - - - -
27/05:30am 24.2 CALM 0 0 1006.1 - 0.0 - - - - - - -
27/05:00am 24.4 CALM 0 0 1006.1 - 0.0 - Partly cloudy - - - - -
27/04:30am 24.6 CALM 0 0 1006.0 - 0.0 - Partly cloudy - - - - -
27/04:00am 24.6 CALM 0 0 1005.8 - 0.0 - Partly cloudy - - - - -
27/03:30am 24.8 ENE 3 4 1005.8 - 0.0 - Partly cloudy - - - - -
27/03:00am 24.9 NNE 3 4 1005.6 - 0.0 - Mostly clear - - - - -
27/02:30am 25.0 N 3 4 1005.6 - 0.0 - Partly cloudy - - - - -
27/02:00am 25.1 NNE 3 4 1006.0 - 0.0 - - - - - - -
27/01:30am 25.2 NNE 3 5 1006.2 - 0.0 - - - - - - -
27/01:00am 25.2 N 3 4 1006.5 - 0.0 - - - - - - -
27/12:30am 25.3 NNE 2 4 1006.6 - 0.0 - - - - - - -
27/12:00am 25.4 CALM 0 0 1007.0 - 0.0 - - - - - - -
 
Date/Time
EST
Temp

°C
Wind Pressure Rain
since 9am
mm
Weather Cloud Vis
km
Sea
Height
m
Swell
Dir
 
Speed
knots
Gust
knots
hPa Trend Height
m
Period
s
Dir
26/11:30pm 25.5 NE 2 4 1007.4 - 0.0 - - - - - - -
26/11:00pm 25.6 CALM 0 0 1007.2 - 0.0 - - - - - - -
26/10:30pm 25.8 NNE 5 6 1007.2 - 0.0 - - - - - - -
26/10:00pm 26.2 N 3 4 1007.1 - 0.0 - Partly cloudy - - - - -
26/09:30pm 26.4 N 5 7 1007.1 - 0.0 - Partly cloudy - - - - -
26/09:00pm 27.2 NNW 4 5 1006.7 - 0.0 - Mostly clear - - - - -
26/08:30pm 27.6 NW 3 5 1006.4 - 0.0 - Partly cloudy - - - - -
26/08:00pm 27.9 NNW 3 6 1005.9 - 0.0 - Partly cloudy - - - - -
26/07:30pm 28.4 NW 6 8 1005.2 - 0.0 - Partly cloudy - - - - -
26/07:00pm 28.6 W 5 7 1004.5 - 0.0 - - - - - - -
26/06:30pm 29.4 W 6 9 1004.2 - 0.0 - - - - - - -
26/06:00pm 30.4 W 8 10 1004.0 - 0.0 - - - - - - -
26/05:30pm 31.0 W 7 9 1003.8 - 0.0 - - - - - - -
26/05:00pm 31.4 WSW 8 11 1003.6 - 0.0 - - - - - - -
26/04:30pm 32.2 W 10 14 1003.4 - 0.0 - Partly cloudy - - - - -
26/04:00pm 33.2 WSW 7 9 1003.5 - 0.0 - Partly cloudy - - - - -
26/03:30pm 33.5 WSW 4 7 1003.7 - 0.0 - Partly cloudy - - - - -
26/03:00pm 33.3 WSW 4 7 1004.0 - 0.0 - Mostly clear - - - - -
26/02:30pm 32.8 SSW 4 6 1004.5 - 0.0 - Partly cloudy - - - - -
26/02:00pm 32.7 W 3 7 1004.9 - 0.0 - Partly cloudy - - - - -
26/01:30pm 32.2 SE 3 6 1005.6 - 0.0 - Partly cloudy - - - - -
26/01:00pm 32.3 NNE 4 6 1006.3 - 0.0 - Partly cloudy - - - - -
26/12:30pm 30.7 ENE 4 6 1006.7 - 0.0 - Partly cloudy - - - - -
26/12:00pm 31.1 NE 5 9 1007.3 - 0.0 - Mostly clear - - - - -
26/11:30am 30.5 NNE 4 6 1008.1 - 0.0 - Partly cloudy - - - - -
26/11:00am 30.1 NNE 5 7 1008.5 - 0.0 - Partly cloudy - - - - -
26/10:30am 28.6 NE 5 8 1008.6 - 0.0 - Partly cloudy - - - - -
26/10:00am 28.7 NE 7 9 1008.7 - 0.0 - Partly cloudy - - - - -
26/09:40am 27.4 NNE 6 8 1008.8 - 0.0 - Partly cloudy - - - - -
26/09:30am 27.0 NE 4 7 1008.9 - 0.0 - Partly cloudy - - - - -
26/09:00am 26.6 NE 6 8 1008.7 - 19.2 - Partly cloudy - - - - -
26/08:59am 26.5 NE 6 8 1008.6 - 19.2 - Partly cloudy - - - - -
26/08:30am 26.2 NE 6 8 1008.4 - 19.2 - Partly cloudy - - - - -
26/08:00am 25.3 E 3 5 1008.1 - 19.2 - Partly cloudy - - - - -
26/07:30am 25.0 CALM 0 0 1007.7 - 19.2 - Partly cloudy - - - - -
26/07:00am 24.9 CALM 0 0 1007.1 - 19.2 - Partly cloudy - - - - -
26/06:30am 24.7 E 1 4 1007.0 - 19.2 - Partly cloudy - - - - -
26/06:00am 24.7 CALM 0 0 1006.6 - 19.2 - Mostly cloudy - - - - -
26/05:30am 24.5 CALM 0 3 1006.3 - 19.2 - Partly cloudy - - - - -
26/05:00am 24.3 ENE 2 3 1005.8 - 19.2 - - - - - - -
26/04:30am 24.2 NE 5 7 1005.7 - 19.2 - - - - - - -
26/04:00am 24.3 CALM 0 0 1005.9 - 19.0 - - - - - - -
26/03:30am 24.4 N 1 4 1006.0 - 18.8 - Cloudy - - - - -
26/03:00am 24.4 N 3 5 1006.5 - 18.0 - Mostly cloudy - - - - -
26/02:30am 24.4 NNW 4 6 1006.6 - 16.6 - Partly cloudy - - - - -
26/02:00am 24.6 ENE 1 3 1006.8 - 15.4 - Cloudy - - - - -
26/01:30am 24.5 NNE 5 8 1006.2 - 14.0 - Partly cloudy - - - - -
26/01:00am 24.3 E 9 12 1006.7 - 14.0 - Partly cloudy - - - - -
26/12:30am 25.8 SE 9 12 1008.4 - 1.2 - Partly cloudy - - - - -
26/12:00am 26.9 ESE 9 12 1007.9 - 0.0 - Cloudy - - - - -
 
Date/Time
EST
Temp

°C
Wind Pressure Rain
since 9am
mm
Weather Cloud Vis
km
Sea
Height
m
Swell
Dir
 
Speed
knots
Gust
knots
hPa Trend Height
m
Period
s
Dir
25/11:30pm 27.2 E 6 10 1007.9 - 0.0 - Partly cloudy - - - - -
25/11:00pm 27.5 E 6 9 1007.4 - 0.0 - - - - - - -
25/10:30pm 27.9 ENE 4 6 1007.4 - 0.0 - Partly cloudy - - - - -
25/10:00pm 28.2 CALM 0 0 1007.7 - 0.0 - - - - - - -
25/09:30pm 28.4 CALM 0 0 1007.8 - 0.0 - - - - - - -
25/09:00pm 28.4 CALM 0 0 1006.8 - 0.0 - Cloudy - - - - -
25/08:30pm 28.4 N 3 4 1006.0 - 0.0 - - - - - - -
25/08:00pm 29.0 NNW 3 4 1006.1 - 0.0 - - - - - - -
25/07:30pm 29.3 NW 3 4 1006.1 - 0.0 - - - - - - -
25/07:00pm 29.4 CALM 0 3 1006.4 - 0.0 - - - - - - -
25/06:30pm 29.7 WNW 4 5 1005.8 - 0.0 - - - - - - -
25/06:00pm 29.9 WNW 7 9 1005.3 - 0.0 - - - - - - -
25/05:30pm 30.7 WNW 8 11 1005.2 - 0.0 - - - - - - -

Other Formats:

Comma delimited format used in spreadsheet applications
http://www.bom.gov.au/fwo/IDQ60701/IDQ60701.94268.axf

JavaScript Object Notation format (JSON) in row-major order
http://www.bom.gov.au/fwo/IDQ60701/IDQ60701.94268.json